createdAt,value
2022-10-17T03:58:45.643Z,0.00
2022-10-17T03:59:45.762Z,0.00
2022-10-17T04:00:46.932Z,0.00
2022-10-17T04:01:46.183Z,0.00
2022-10-17T04:02:46.812Z,0.00
2022-10-17T04:03:46.361Z,0.00
2022-10-17T04:04:46.501Z,0.00
2022-10-17T04:05:47.652Z,0.00
2022-10-17T04:06:46.780Z,0.00
2022-10-17T04:07:48.491Z,0.00
2022-10-17T04:08:48.702Z,0.00
2022-10-17T04:09:48.995Z,0.00
2022-10-17T04:10:48.393Z,0.00
2022-10-17T04:11:48.101Z,0.00
2022-10-17T04:12:47.690Z,0.00
2022-10-17T04:13:49.400Z,0.00
2022-10-17T04:14:48.612Z,0.00
2022-10-17T04:15:49.066Z,0.00
2022-10-17T04:16:50.810Z,0.00
2022-10-17T04:17:48.643Z,0.00
2022-10-17T04:18:48.459Z,0.00
2022-10-17T04:19:50.182Z,0.00
2022-10-17T04:20:49.679Z,0.00
2022-10-17T04:21:49.611Z,0.00
2022-10-17T04:22:49.008Z,0.00
2022-10-17T04:23:51.579Z,0.00
2022-10-17T04:24:51.817Z,0.00
2022-10-17T04:25:50.608Z,0.00
2022-10-17T04:26:49.559Z,0.00
2022-10-17T04:27:49.717Z,0.00
2022-10-17T04:28:49.850Z,0.00
2022-10-17T04:29:51.558Z,0.00
2022-10-17T04:30:54.008Z,0.00
2022-10-17T04:31:50.292Z,0.00
2022-10-17T04:32:50.426Z,0.00
2022-10-17T04:33:50.557Z,0.00
2022-10-17T04:34:50.699Z,0.00
2022-10-17T04:35:51.917Z,0.00
2022-10-17T04:36:50.979Z,0.00
2022-10-17T04:37:51.148Z,0.00
2022-10-17T04:38:52.837Z,0.00
2022-10-17T04:39:52.236Z,0.00
2022-10-17T04:40:52.652Z,0.00
2022-10-17T04:41:51.598Z,0.00
2022-10-17T04:42:51.753Z,0.00
2022-10-17T04:43:51.885Z,0.00
2022-10-17T04:44:52.007Z,0.00
2022-10-17T04:45:54.665Z,0.00
2022-10-17T04:46:53.955Z,0.00
2022-10-17T04:47:52.435Z,0.00
2022-10-17T04:48:55.126Z,0.00
2022-10-17T04:49:54.421Z,0.00
2022-10-17T04:50:55.297Z,0.00
2022-10-17T04:51:53.935Z,0.00
2022-10-17T04:52:55.643Z,0.00
2022-10-17T04:53:55.683Z,0.00
2022-10-17T04:54:54.967Z,0.00
2022-10-17T04:55:57.180Z,0.00
2022-10-17T04:56:54.526Z,0.00
2022-10-17T04:57:54.606Z,0.00
2022-10-17T04:58:54.766Z,0.00
2022-10-17T04:59:55.746Z,0.00
2022-10-17T05:00:55.175Z,0.00
2022-10-17T05:01:55.244Z,0.00
2022-10-17T05:02:55.419Z,0.00
2022-10-17T05:03:55.564Z,0.00
2022-10-17T05:04:57.424Z,0.00
2022-10-17T05:05:56.652Z,0.00
2022-10-17T05:06:56.108Z,0.00
2022-10-17T05:07:56.185Z,0.00
2022-10-17T05:08:56.121Z,0.00
2022-10-17T05:09:57.110Z,0.00
2022-10-17T05:10:56.466Z,0.00
2022-10-17T05:11:56.590Z,0.00
2022-10-17T05:12:55.922Z,0.00
2022-10-17T05:13:56.911Z,0.00
2022-10-17T05:14:57.814Z,0.00
2022-10-17T05:15:57.231Z,0.00
2022-10-17T05:16:56.462Z,0.00
2022-10-17T05:17:59.622Z,0.00
2022-10-17T05:18:56.767Z,0.00
2022-10-17T05:19:57.611Z,0.00
2022-10-17T05:20:59.491Z,0.00
2022-10-17T05:21:58.773Z,0.00
2022-10-17T05:22:57.286Z,0.00
2022-10-17T05:23:58.400Z,0.00
2022-10-17T05:24:57.574Z,0.00
2022-10-17T05:26:00.292Z,0.00
2022-10-17T05:26:59.521Z,0.00
2022-10-17T05:27:59.754Z,0.00
2022-10-17T05:28:58.201Z,0.00
2022-10-17T05:29:58.220Z,0.00
2022-10-17T05:30:59.939Z,0.00
2022-10-17T05:31:58.514Z,0.00
2022-10-17T05:33:00.229Z,0.00
2022-10-17T05:33:59.602Z,0.00
2022-10-17T05:34:59.759Z,0.00
2022-10-17T05:35:59.909Z,1.00
2022-10-17T05:36:59.102Z,1.00
2022-10-17T05:38:00.818Z,1.00
2022-10-17T05:39:00.151Z,1.00
2022-10-17T05:40:00.310Z,2.00
2022-10-17T05:41:01.258Z,2.00
2022-10-17T05:42:00.618Z,2.00
2022-10-17T05:42:59.910Z,3.00
2022-10-17T05:44:05.357Z,3.00
2022-10-17T05:45:01.098Z,2.00
2022-10-17T05:46:01.287Z,3.00
2022-10-17T05:47:00.491Z,5.00
2022-10-17T05:48:00.678Z,5.00
2022-10-17T05:49:07.627Z,4.00
2022-10-17T05:50:01.849Z,6.00
2022-10-17T05:51:01.814Z,10.00
2022-10-17T05:52:01.968Z,8.00
2022-10-17T05:53:02.868Z,12.00
2022-10-17T05:54:04.567Z,12.00
2022-10-17T05:55:03.297Z,12.00
2022-10-17T05:56:01.615Z,14.00
2022-10-17T05:57:03.366Z,14.00
2022-10-17T05:58:02.917Z,15.00
2022-10-17T05:59:02.061Z,16.00
2022-10-17T06:00:03.786Z,17.00
2022-10-17T06:01:04.481Z,17.00
2022-10-17T06:02:04.272Z,19.00
2022-10-17T06:03:05.079Z,22.00
2022-10-17T06:04:03.629Z,25.00
2022-10-17T06:05:05.485Z,24.00
2022-10-17T06:06:03.945Z,30.00
2022-10-17T06:07:03.204Z,30.00
2022-10-17T06:08:04.265Z,28.00
2022-10-17T06:09:03.566Z,29.00
2022-10-17T06:10:06.242Z,32.00
2022-10-17T06:11:07.503Z,35.00
2022-10-17T06:12:06.884Z,36.00
2022-10-17T06:13:06.550Z,38.00
2022-10-17T06:14:05.323Z,39.00
2022-10-17T06:15:07.998Z,39.00
2022-10-17T06:16:06.925Z,39.00
2022-10-17T06:17:05.584Z,41.00
2022-10-17T06:18:06.352Z,44.00
2022-10-17T06:19:05.920Z,45.00
2022-10-17T06:20:06.633Z,46.00
2022-10-17T06:21:06.873Z,45.00
2022-10-17T06:22:07.103Z,49.00
2022-10-17T06:23:07.384Z,51.00
2022-10-17T06:24:08.553Z,54.00
2022-10-17T06:25:06.622Z,59.00
2022-10-17T06:26:06.907Z,62.00
2022-10-17T06:27:10.874Z,65.00
2022-10-17T06:28:08.642Z,65.00
2022-10-17T06:29:08.430Z,67.00
2022-10-17T06:30:09.103Z,63.00
2022-10-17T06:31:08.518Z,65.00
2022-10-17T06:32:11.098Z,65.00
2022-10-17T06:33:09.624Z,68.00
2022-10-17T06:34:08.348Z,70.00
2022-10-17T06:35:08.010Z,68.00
2022-10-17T06:36:08.195Z,71.00
2022-10-17T06:37:08.261Z,75.00
2022-10-17T06:38:09.546Z,87.00
2022-10-17T06:39:10.194Z,100.00
2022-10-17T06:40:07.702Z,110.00
2022-10-17T06:41:07.821Z,126.00
2022-10-17T06:42:07.953Z,131.00
2022-10-17T06:43:08.109Z,143.00
2022-10-17T06:44:09.852Z,140.00
2022-10-17T06:45:08.410Z,146.00
2022-10-17T06:46:08.494Z,146.00
2022-10-17T06:47:08.666Z,153.00
2022-10-17T06:48:08.835Z,157.00
2022-10-17T06:49:10.052Z,163.00
2022-10-17T06:50:10.767Z,172.00
2022-10-17T06:51:09.189Z,175.00
2022-10-17T06:52:09.289Z,179.00
2022-10-17T06:53:11.903Z,173.00
2022-10-17T06:54:12.029Z,171.00
2022-10-17T06:55:12.251Z,169.00
2022-10-17T06:56:09.875Z,161.00
2022-10-17T06:57:13.038Z,164.00
2022-10-17T06:58:11.808Z,157.00
2022-10-17T06:59:12.769Z,157.00
2022-10-17T07:00:12.067Z,159.00
2022-10-17T07:01:13.737Z,155.00
2022-10-17T07:02:10.702Z,157.00
2022-10-17T07:03:12.418Z,157.00
2022-10-17T07:04:10.973Z,156.00
2022-10-17T07:05:13.387Z,159.00
2022-10-17T07:06:13.877Z,165.00
2022-10-17T07:07:12.176Z,172.00
2022-10-17T07:08:11.446Z,176.00
2022-10-17T07:09:14.138Z,181.00
2022-10-17T07:10:14.127Z,180.00
2022-10-17T07:11:14.348Z,181.00
2022-10-17T07:12:11.962Z,183.00
2022-10-17T07:13:15.117Z,193.00
2022-10-17T07:14:13.037Z,195.00
2022-10-17T07:15:14.378Z,202.00
2022-10-17T07:16:14.193Z,208.00
2022-10-17T07:17:12.627Z,210.00
2022-10-17T07:18:15.229Z,212.00
2022-10-17T07:19:12.927Z,214.00
2022-10-17T07:20:13.079Z,209.00
2022-10-17T07:21:14.816Z,205.00
2022-10-17T07:22:13.399Z,204.00
2022-10-17T07:23:14.656Z,209.00
2022-10-17T07:24:13.676Z,211.00
2022-10-17T07:25:14.826Z,212.00
2022-10-17T07:26:15.653Z,213.00
2022-10-17T07:27:14.096Z,236.00
2022-10-17T07:28:14.215Z,234.00
2022-10-17T07:29:16.571Z,249.00
2022-10-17T07:30:15.484Z,258.00
2022-10-17T07:31:16.221Z,253.00
2022-10-17T07:32:14.704Z,261.00
2022-10-17T07:33:14.860Z,250.00
2022-10-17T07:34:15.031Z,241.00
2022-10-17T07:35:16.114Z,255.00
2022-10-17T07:36:16.854Z,272.00
2022-10-17T07:37:15.400Z,273.00
2022-10-17T07:38:15.619Z,282.00
2022-10-17T07:39:17.283Z,268.00
2022-10-17T07:40:17.520Z,281.00
2022-10-17T07:41:19.469Z,286.00
2022-10-17T07:42:16.099Z,299.00
2022-10-17T07:43:16.219Z,287.00
2022-10-17T07:44:16.356Z,268.00
2022-10-17T07:45:18.154Z,252.00
2022-10-17T07:46:16.652Z,292.00
2022-10-17T07:47:16.773Z,283.00
2022-10-17T07:48:17.463Z,266.00
2022-10-17T07:49:17.041Z,301.00
2022-10-17T07:50:18.752Z,311.00
2022-10-17T07:51:18.992Z,287.00
2022-10-17T07:52:17.466Z,281.00
2022-10-17T07:53:17.557Z,324.00
2022-10-17T07:54:19.272Z,296.00
2022-10-17T07:55:17.861Z,308.00
2022-10-17T07:56:18.024Z,311.00
2022-10-17T07:57:19.751Z,323.00
2022-10-17T07:58:18.372Z,337.00
2022-10-17T07:59:18.443Z,360.00
2022-10-17T08:00:18.601Z,352.00
2022-10-17T08:01:20.340Z,393.00
2022-10-17T08:02:18.891Z,353.00
2022-10-17T08:03:19.022Z,376.00
2022-10-17T08:04:19.171Z,398.00
2022-10-17T08:05:20.430Z,353.00
2022-10-17T08:06:19.437Z,369.00
2022-10-17T08:07:22.095Z,378.00
2022-10-17T08:08:21.299Z,386.00
2022-10-17T08:09:20.861Z,390.00
2022-10-17T08:10:20.011Z,398.00
2022-10-17T08:11:20.129Z,434.00
2022-10-17T08:12:21.860Z,451.00
2022-10-17T08:13:22.081Z,452.00
2022-10-17T08:14:20.621Z,464.00
2022-10-17T08:15:20.638Z,444.00
2022-10-17T08:16:22.369Z,426.00
2022-10-17T08:17:22.589Z,398.00
2022-10-17T08:18:21.033Z,371.00
2022-10-17T08:19:21.186Z,371.00
2022-10-17T08:20:21.268Z,358.00
2022-10-17T08:21:23.030Z,358.00
2022-10-17T08:22:23.248Z,353.00
2022-10-17T08:23:23.468Z,340.00
2022-10-17T08:24:21.906Z,342.00
2022-10-17T08:25:22.048Z,363.00
2022-10-17T08:26:22.208Z,332.00
2022-10-17T08:27:22.298Z,325.00
2022-10-17T08:28:23.583Z,344.00
2022-10-17T08:29:22.627Z,364.00
2022-10-17T08:30:24.532Z,377.00
2022-10-17T08:31:24.187Z,382.00
2022-10-17T08:32:24.908Z,406.00
2022-10-17T08:33:23.256Z,395.00
2022-10-17T08:34:24.322Z,414.00
2022-10-17T08:35:25.063Z,426.00
2022-10-17T08:36:23.690Z,438.00
2022-10-17T08:37:25.347Z,396.00
2022-10-17T08:38:27.506Z,349.00
2022-10-17T08:39:24.934Z,330.00
2022-10-17T08:40:24.180Z,320.00
2022-10-17T08:41:25.897Z,316.00
2022-10-17T08:42:24.472Z,320.00
2022-10-17T08:43:24.622Z,333.00
2022-10-17T08:44:25.730Z,367.00
2022-10-17T08:45:24.943Z,401.00
2022-10-17T08:46:26.677Z,472.00
2022-10-17T08:47:27.087Z,505.00
2022-10-17T08:48:25.338Z,411.00
2022-10-17T08:49:25.425Z,486.00
2022-10-17T08:50:25.614Z,465.00
2022-10-17T08:51:25.695Z,459.00
2022-10-17T08:52:27.427Z,504.00
2022-10-17T08:53:25.937Z,535.00
2022-10-17T08:54:26.085Z,544.00
2022-10-17T08:55:26.165Z,538.00
2022-10-17T08:56:44.120Z,506.00
2022-10-17T08:57:29.367Z,499.00
2022-10-17T08:58:26.643Z,507.00
2022-10-17T08:59:26.823Z,468.00
2022-10-17T09:00:26.894Z,452.00
2022-10-17T09:01:28.053Z,460.00
2022-10-17T09:02:28.821Z,465.00
2022-10-17T09:03:29.211Z,450.00
2022-10-17T09:04:27.466Z,440.00
2022-10-17T09:05:27.574Z,464.00
2022-10-17T09:06:27.768Z,415.00
2022-10-17T09:07:28.206Z,432.00
2022-10-17T09:08:29.570Z,496.00
2022-10-17T09:09:28.124Z,551.00
2022-10-17T09:10:28.214Z,533.00
2022-10-17T09:11:28.362Z,510.00
2022-10-17T09:12:28.794Z,486.00
2022-10-17T09:13:30.292Z,479.00
2022-10-17T09:14:29.823Z,469.00
2022-10-17T09:15:30.560Z,473.00
2022-10-17T09:16:29.081Z,489.00
2022-10-17T09:17:29.421Z,516.00
2022-10-17T09:18:30.921Z,517.00
2022-10-17T09:19:29.503Z,535.00
2022-10-17T09:20:29.630Z,550.00
2022-10-17T09:21:31.391Z,582.00
2022-10-17T09:22:29.937Z,621.00
2022-10-17T09:23:30.071Z,662.00
2022-10-17T09:24:31.819Z,691.00
2022-10-17T09:25:30.386Z,713.00
2022-10-17T09:26:30.608Z,682.00
2022-10-17T09:27:31.043Z,691.00
2022-10-17T09:28:30.820Z,691.00
2022-10-17T09:29:36.912Z,680.00
2022-10-17T09:30:47.223Z,665.00
2022-10-17T09:31:32.169Z,635.00
2022-10-17T09:32:31.610Z,612.00
2022-10-17T09:33:42.199Z,605.00
2022-10-17T09:34:34.173Z,601.00
2022-10-17T09:35:31.684Z,601.00
2022-10-17T09:36:31.857Z,612.00
2022-10-17T09:37:31.989Z,645.00
2022-10-17T09:38:32.088Z,684.00
2022-10-17T09:39:33.840Z,721.00
2022-10-17T09:40:32.370Z,761.00
2022-10-17T09:41:44.894Z,768.00
2022-10-17T09:42:34.602Z,748.00
2022-10-17T09:43:34.390Z,699.00
2022-10-17T09:44:34.628Z,714.00
2022-10-17T09:45:34.028Z,692.00
2022-10-17T09:46:33.239Z,694.00
2022-10-17T09:47:33.338Z,714.00
2022-10-17T09:48:33.513Z,693.00
2022-10-17T09:49:34.720Z,670.00
2022-10-17T09:50:33.798Z,639.00
2022-10-17T09:51:35.557Z,669.00
2022-10-17T09:52:34.103Z,660.00
2022-10-17T09:53:34.257Z,594.00
2022-10-17T09:54:34.438Z,590.00
2022-10-17T09:55:34.538Z,693.00
2022-10-17T09:56:34.715Z,734.00
2022-10-17T09:57:35.926Z,736.00
2022-10-17T09:58:34.937Z,648.00
2022-10-17T09:59:36.669Z,669.00
2022-10-17T10:00:35.272Z,781.00
2022-10-17T10:01:36.917Z,713.00
2022-10-17T10:12:52.490Z,989.00
2022-10-17T10:13:52.611Z,869.00
2022-10-17T10:14:55.409Z,877.00
2022-10-17T10:15:54.000Z,891.00
2022-10-17T10:16:53.038Z,999.00
2022-10-17T10:17:53.189Z,1079.00
2022-10-17T10:18:54.398Z,1123.00
2022-10-17T10:19:53.477Z,1185.00
2022-10-17T10:20:55.214Z,1331.00
2022-10-17T10:21:53.738Z,912.00
2022-10-17T10:22:57.020Z,689.00
2022-10-17T10:23:55.608Z,540.00
2022-10-17T10:24:54.219Z,446.00
2022-10-17T10:25:55.946Z,475.00
2022-10-17T10:26:54.509Z,397.00
2022-10-17T10:27:57.279Z,362.00
2022-10-17T10:28:56.478Z,407.00
2022-10-17T10:29:54.931Z,392.00
2022-10-17T10:30:57.609Z,369.00
2022-10-17T10:31:55.231Z,451.00
2022-10-17T10:32:55.466Z,650.00
2022-10-17T10:33:57.754Z,719.00
2022-10-17T10:34:55.671Z,672.00
2022-10-17T10:35:55.832Z,572.00
2022-10-17T10:36:57.558Z,738.00
2022-10-17T10:37:57.757Z,868.00
2022-10-17T10:38:56.307Z,900.00
2022-10-17T10:39:57.455Z,974.00
2022-10-17T10:40:57.601Z,1016.00
2022-10-17T10:41:56.737Z,1044.00
2022-10-17T10:43:04.875Z,1348.00
2022-10-17T10:43:59.920Z,1313.00
2022-10-17T10:44:58.125Z,1194.00
2022-10-17T10:45:57.324Z,1111.00
2022-10-17T10:46:57.495Z,1177.00
2022-10-17T10:47:57.660Z,1161.00
2022-10-17T10:48:59.357Z,1204.00
2022-10-17T10:49:57.945Z,1259.00
2022-10-17T10:50:58.106Z,1325.00
2022-10-17T10:51:58.260Z,1252.00
2022-10-17T10:52:58.456Z,1330.00
2022-10-17T10:54:00.136Z,1267.00
2022-10-17T10:54:58.640Z,1002.00
2022-10-17T10:55:59.781Z,899.00
2022-10-17T10:56:58.914Z,782.00
2022-10-17T10:57:59.014Z,700.00
2022-10-17T10:59:00.729Z,742.00
2022-10-17T11:00:00.174Z,737.00
2022-10-17T11:00:59.398Z,827.00
2022-10-17T11:01:59.443Z,881.00
2022-10-17T11:03:01.712Z,946.00
2022-10-17T11:04:01.341Z,945.00
2022-10-17T11:04:59.877Z,868.00
2022-10-17T11:06:01.106Z,889.00
2022-10-17T11:07:00.115Z,856.00
2022-10-17T11:08:00.222Z,732.00
2022-10-17T11:09:01.963Z,618.00
2022-10-17T11:10:02.183Z,578.00
2022-10-17T11:11:00.603Z,471.00
2022-10-17T11:12:01.713Z,466.00
2022-10-17T11:13:00.885Z,441.00
2022-10-17T11:14:02.596Z,467.00
2022-10-17T11:15:02.323Z,468.00
2022-10-17T11:16:02.310Z,464.00
2022-10-17T11:17:01.473Z,439.00
2022-10-17T11:18:01.605Z,345.00
2022-10-17T11:19:01.744Z,341.00
2022-10-17T11:20:02.983Z,378.00
2022-10-17T11:21:01.993Z,340.00
2022-10-17T11:22:02.142Z,306.00
2022-10-17T11:23:03.311Z,327.00
2022-10-17T11:24:05.648Z,452.00
2022-10-17T11:25:05.161Z,497.00
2022-10-17T11:26:03.729Z,435.00
2022-10-17T11:27:02.886Z,399.00
2022-10-17T11:28:05.150Z,428.00
2022-10-17T11:29:04.806Z,415.00
2022-10-17T11:30:03.260Z,393.00
2022-10-17T11:31:05.871Z,313.00
2022-10-17T11:32:03.541Z,271.00
2022-10-17T11:33:05.268Z,263.00
2022-10-17T11:34:03.813Z,227.00
2022-10-17T11:35:03.950Z,225.00
2022-10-17T11:36:04.070Z,219.00
2022-10-17T11:37:04.194Z,234.00
2022-10-17T11:38:05.889Z,260.00
2022-10-17T11:39:04.463Z,236.00
2022-10-17T11:40:05.687Z,308.00
2022-10-17T11:41:06.390Z,339.00
2022-10-17T11:42:04.960Z,367.00
2022-10-17T11:43:05.071Z,354.00
2022-10-17T11:44:05.209Z,379.00
2022-10-17T11:45:06.956Z,361.00
2022-10-17T11:46:06.660Z,279.00
2022-10-17T11:47:05.696Z,230.00
2022-10-17T11:48:05.795Z,228.00
2022-10-17T11:49:07.592Z,194.00
2022-10-17T11:52:07.280Z,140.00
2022-10-17T11:53:07.421Z,119.00
2022-10-17T11:54:06.609Z,120.00
2022-10-17T11:55:07.682Z,129.00
2022-10-17T11:56:08.478Z,137.00
2022-10-17T11:57:07.021Z,142.00
2022-10-17T11:58:07.178Z,138.00
2022-10-17T11:59:07.358Z,138.00
2022-10-17T12:00:07.521Z,165.00
2022-10-17T12:01:09.257Z,177.00
2022-10-17T12:02:07.816Z,188.00
2022-10-17T12:03:07.992Z,198.00
2022-10-17T12:04:08.182Z,258.00
2022-10-17T12:05:09.269Z,204.00
2022-10-17T12:06:10.937Z,183.00
2022-10-17T12:07:08.509Z,171.00
2022-10-17T12:08:08.671Z,192.00
2022-10-17T12:09:08.817Z,245.00
2022-10-17T12:10:08.999Z,325.00
2022-10-17T12:11:10.717Z,320.00
2022-10-17T12:12:09.255Z,259.00
2022-10-17T12:13:12.428Z,218.00
2022-10-17T12:14:09.631Z,158.00
2022-10-17T12:15:11.837Z,132.00
2022-10-17T12:16:14.661Z,378.00
2022-10-17T12:17:10.896Z,481.00
2022-10-17T12:18:11.615Z,379.00
2022-10-17T12:19:11.853Z,567.00
2022-10-17T12:20:11.570Z,612.00
2022-10-17T12:21:10.455Z,428.00
2022-10-17T12:22:10.599Z,461.00
2022-10-17T12:23:12.316Z,391.00
2022-10-17T12:24:12.649Z,393.00
2022-10-17T12:25:12.148Z,320.00
2022-10-17T12:26:12.904Z,347.00
2022-10-17T12:27:11.387Z,434.00
2022-10-17T12:28:13.104Z,540.00
2022-10-17T12:29:13.335Z,425.00
2022-10-17T12:30:11.826Z,314.00
2022-10-17T12:31:13.533Z,241.00
2022-10-17T12:32:12.114Z,211.00
2022-10-17T12:33:13.852Z,261.00
2022-10-17T12:34:12.377Z,363.00
2022-10-17T12:35:12.524Z,367.00
2022-10-17T12:36:12.686Z,345.00
2022-10-17T12:37:12.814Z,361.00
2022-10-17T12:38:14.032Z,379.00
2022-10-17T12:39:13.123Z,299.00
2022-10-17T12:40:13.326Z,340.00
2022-10-17T12:41:13.493Z,335.00
2022-10-17T12:42:13.617Z,349.00
2022-10-17T12:43:15.303Z,326.00
2022-10-17T12:44:14.167Z,348.00
2022-10-17T12:45:14.056Z,450.00
2022-10-17T12:46:14.142Z,720.00
2022-10-17T12:47:15.899Z,1240.00
2022-10-17T12:48:14.454Z,1344.00
2022-10-17T12:49:16.175Z,1503.00
2022-10-17T12:50:15.805Z,1271.00
2022-10-17T12:52:16.012Z,837.00
2022-10-17T12:53:19.168Z,870.00
2022-10-17T12:54:16.301Z,1049.00
2022-10-17T12:55:15.404Z,1068.00
2022-10-17T12:56:17.110Z,1117.00
2022-10-17T12:57:15.714Z,1078.00
2022-10-17T12:58:17.421Z,871.00
2022-10-17T12:59:16.000Z,718.00
2022-10-17T13:00:17.759Z,641.00
2022-10-17T13:01:24.228Z,866.00
2022-10-17T13:02:17.481Z,821.00
2022-10-17T13:03:18.191Z,616.00
2022-10-17T13:04:16.669Z,568.00
2022-10-17T13:05:18.384Z,494.00
2022-10-17T13:06:18.100Z,535.00
2022-10-17T13:07:17.061Z,595.00
2022-10-17T13:08:18.800Z,753.00
2022-10-17T13:09:19.030Z,948.00
2022-10-17T13:10:17.594Z,775.00
2022-10-17T13:11:19.230Z,644.00
2022-10-17T13:12:17.770Z,461.00
2022-10-17T13:13:19.500Z,650.00
2022-10-17T13:14:19.729Z,624.00
2022-10-17T13:15:18.141Z,724.00
2022-10-17T13:16:19.870Z,781.00
2022-10-17T13:17:18.760Z,794.00
2022-10-17T13:18:18.532Z,1009.00
2022-10-17T13:19:20.258Z,697.00
2022-10-17T13:20:22.159Z,633.00
2022-10-17T13:21:19.002Z,653.00
2022-10-17T13:22:20.745Z,488.00
2022-10-17T13:23:19.268Z,474.00
2022-10-17T13:24:20.991Z,505.00
2022-10-17T13:25:20.579Z,510.00
2022-10-17T13:26:21.431Z,631.00
2022-10-17T13:27:19.882Z,716.00
2022-10-17T13:28:21.724Z,625.00
2022-10-17T13:29:21.848Z,557.00
2022-10-17T13:30:20.269Z,474.00
2022-10-17T13:31:21.998Z,461.00
2022-10-17T13:32:22.299Z,339.00
2022-10-17T13:33:22.497Z,287.00
2022-10-17T13:34:20.829Z,284.00
2022-10-17T13:35:27.798Z,288.00
2022-10-17T13:36:23.697Z,236.00
2022-10-17T13:37:22.925Z,255.00
2022-10-17T13:38:21.424Z,245.00
2022-10-17T13:39:32.536Z,252.00
2022-10-17T13:40:44.078Z,314.00
2022-10-17T13:41:35.396Z,458.00
2022-10-17T13:42:24.689Z,470.00
2022-10-17T13:43:22.187Z,400.00
2022-10-17T13:44:22.369Z,352.00
2022-10-17T13:45:22.507Z,314.00
2022-10-17T13:46:36.714Z,264.00
2022-10-17T13:47:25.420Z,187.00
2022-10-17T13:48:24.145Z,163.00
2022-10-17T13:49:25.790Z,156.00
2022-10-17T13:50:43.199Z,143.00
2022-10-17T13:51:25.485Z,132.00
2022-10-17T13:52:23.543Z,108.00
2022-10-17T13:53:25.255Z,107.00
2022-10-17T13:54:25.505Z,105.00
2022-10-17T13:55:25.724Z,115.00
2022-10-17T13:56:28.977Z,144.00
2022-10-17T13:57:24.319Z,111.00
2022-10-17T13:58:26.054Z,115.00
2022-10-17T13:59:26.304Z,125.00
2022-10-17T14:00:26.573Z,131.00
2022-10-17T14:01:26.775Z,128.00
2022-10-17T14:02:27.005Z,127.00
2022-10-17T14:03:32.529Z,136.00
2022-10-17T14:04:26.316Z,141.00
2022-10-17T14:05:27.045Z,151.00
2022-10-17T14:06:27.274Z,142.00
2022-10-17T14:07:29.273Z,146.00
2022-10-17T14:08:26.016Z,152.00
2022-10-17T14:09:27.622Z,176.00
2022-10-17T14:10:27.866Z,162.00
2022-10-17T14:11:28.112Z,140.00
2022-10-17T14:12:28.322Z,121.00
2022-10-17T14:13:28.544Z,111.00
2022-10-17T14:14:28.352Z,102.00
2022-10-17T14:15:28.506Z,102.00
2022-10-17T14:16:28.736Z,105.00
2022-10-17T14:17:27.437Z,99.00
2022-10-17T14:18:33.306Z,113.00
2022-10-17T14:19:30.093Z,105.00
2022-10-17T14:21:42.922Z,122.00
2022-10-17T14:22:28.781Z,111.00
2022-10-17T14:23:29.523Z,109.00
2022-10-17T14:24:29.749Z,119.00
2022-10-17T14:25:29.961Z,120.00
2022-10-17T14:26:30.212Z,118.00
2022-10-17T14:27:30.639Z,123.00
2022-10-17T14:28:30.212Z,131.00
2022-10-17T14:29:30.420Z,136.00
2022-10-17T14:30:55.107Z,121.00
2022-10-17T14:31:31.390Z,127.00
2022-10-17T14:32:31.140Z,136.00
2022-10-17T14:33:30.832Z,123.00
2022-10-17T14:34:31.081Z,120.00
2022-10-17T14:35:41.749Z,107.00
2022-10-17T14:36:30.752Z,86.00
2022-10-17T14:37:30.173Z,74.00
2022-10-17T14:38:30.052Z,82.00
2022-10-17T14:39:30.160Z,64.00
2022-10-17T14:40:31.892Z,51.00
2022-10-17T14:41:47.679Z,65.00
2022-10-17T14:42:31.531Z,62.00
2022-10-17T14:43:32.259Z,59.00
2022-10-17T14:44:32.494Z,68.00
2022-10-17T14:45:30.872Z,69.00
2022-10-17T14:46:32.645Z,69.00
2022-10-17T14:47:48.630Z,64.00
2022-10-17T14:48:32.269Z,60.00
2022-10-17T14:49:31.419Z,60.00
2022-10-17T14:50:31.592Z,79.00
2022-10-17T14:51:40.204Z,73.00
2022-10-17T14:52:33.071Z,93.00
2022-10-17T14:53:31.909Z,81.00
2022-10-17T14:54:33.628Z,101.00
2022-10-17T14:55:32.168Z,112.00
2022-10-17T14:56:33.407Z,127.00
2022-10-17T14:57:32.487Z,93.00
2022-10-17T14:58:34.240Z,86.00
2022-10-17T14:59:53.470Z,86.00
2022-10-17T15:00:33.890Z,84.00
2022-10-17T15:01:34.246Z,78.00
2022-10-17T15:02:34.871Z,90.00
2022-10-17T15:03:35.157Z,101.00
2022-10-17T15:04:33.439Z,132.00
2022-10-17T15:05:34.588Z,141.00
2022-10-17T15:06:35.329Z,162.00
2022-10-17T15:07:35.516Z,162.00
2022-10-17T15:08:35.793Z,167.00
2022-10-17T15:09:35.976Z,156.00
2022-10-17T15:10:35.722Z,145.00
2022-10-17T15:11:35.932Z,124.00
2022-10-17T15:12:36.137Z,113.00
2022-10-17T15:13:42.148Z,114.00
2022-10-17T15:14:37.609Z,125.00
2022-10-17T15:15:36.859Z,125.00
2022-10-17T15:16:36.597Z,136.00
2022-10-17T15:17:36.801Z,136.00
2022-10-17T15:18:35.321Z,150.00
2022-10-17T15:19:35.465Z,182.00
2022-10-17T15:20:35.679Z,150.00
2022-10-17T15:21:43.277Z,150.00
2022-10-17T15:22:38.490Z,134.00
2022-10-17T15:23:37.025Z,117.00
2022-10-17T15:24:36.155Z,103.00
2022-10-17T15:25:36.334Z,103.00
2022-10-17T15:26:37.524Z,134.00
2022-10-17T15:27:38.225Z,110.00
2022-10-17T15:28:38.493Z,135.00
2022-10-17T15:29:38.670Z,136.00
2022-10-17T15:30:38.898Z,113.00
2022-10-17T15:31:38.603Z,89.00
2022-10-17T15:32:38.836Z,64.00
2022-10-17T15:33:39.044Z,66.00
2022-10-17T15:34:39.277Z,57.00
2022-10-17T15:35:39.522Z,54.00
2022-10-17T15:36:39.236Z,44.00
2022-10-17T15:37:39.462Z,39.00
2022-10-17T15:38:39.710Z,36.00
2022-10-17T15:39:39.913Z,31.00
2022-10-17T15:40:40.162Z,26.00
2022-10-17T15:41:39.863Z,29.00
2022-10-17T15:42:40.103Z,30.00
2022-10-17T15:43:40.322Z,35.00
2022-10-17T15:44:40.560Z,28.00
2022-10-17T15:45:40.783Z,22.00
2022-10-17T15:46:41.042Z,21.00
2022-10-17T15:47:41.211Z,23.00
2022-10-17T15:48:40.952Z,21.00
2022-10-17T15:49:41.152Z,22.00
2022-10-17T15:50:41.393Z,18.00
2022-10-17T15:51:41.614Z,20.00
2022-10-17T15:52:41.836Z,17.00
2022-10-17T15:53:41.554Z,17.00
2022-10-17T15:54:41.802Z,18.00
2022-10-17T15:55:42.048Z,17.00
2022-10-17T15:56:40.431Z,17.00
2022-10-17T15:57:42.151Z,18.00
2022-10-17T15:58:40.672Z,17.00
2022-10-17T15:59:42.375Z,17.00
2022-10-17T16:00:41.701Z,19.00
2022-10-17T16:11:59.719Z,10.00
2022-10-17T16:12:59.818Z,6.00
2022-10-17T16:13:59.917Z,10.00
2022-10-17T16:15:00.648Z,10.00
2022-10-17T16:16:01.906Z,11.00
2022-10-17T16:17:01.127Z,13.00
2022-10-17T16:18:02.932Z,10.00
2022-10-17T16:19:02.363Z,8.00
2022-10-17T16:20:00.844Z,7.00
2022-10-17T16:21:01.586Z,7.00
2022-10-17T16:22:04.290Z,7.00
2022-10-17T16:23:01.308Z,8.00
2022-10-17T16:24:01.479Z,8.00
2022-10-17T16:25:02.196Z,8.00
2022-10-17T16:26:01.788Z,7.00
2022-10-17T16:27:01.876Z,7.00
2022-10-17T16:28:02.035Z,7.00
2022-10-17T16:29:02.216Z,6.00
2022-10-17T16:30:03.905Z,6.00
2022-10-17T16:31:02.507Z,4.00
2022-10-17T16:32:02.620Z,3.00
2022-10-17T16:33:02.725Z,3.00
2022-10-17T16:34:04.452Z,2.00
2022-10-17T16:35:04.686Z,3.00
2022-10-17T16:36:03.164Z,3.00
2022-10-17T16:37:03.336Z,2.00
2022-10-17T16:38:05.057Z,2.00
2022-10-17T16:39:05.304Z,2.00
2022-10-17T16:40:05.547Z,2.00
2022-10-17T16:41:05.771Z,1.00
2022-10-17T16:42:05.985Z,0.00
2022-10-17T16:43:05.715Z,0.00
2022-10-17T16:44:06.206Z,0.00
2022-10-17T16:45:06.320Z,0.00
2022-10-17T16:46:06.503Z,0.00
2022-10-17T16:47:06.233Z,0.00
2022-10-17T16:48:06.463Z,0.00
2022-10-17T16:49:06.743Z,0.00
2022-10-17T16:50:06.943Z,0.00
2022-10-17T16:51:07.165Z,0.00
2022-10-17T16:52:06.912Z,0.00
2022-10-17T16:53:07.155Z,0.00
2022-10-17T16:54:07.365Z,0.00
2022-10-17T16:55:07.592Z,0.00
2022-10-17T16:56:07.822Z,0.00
2022-10-17T16:57:07.542Z,0.00
2022-10-17T16:58:07.804Z,0.00
2022-10-17T16:59:08.031Z,0.00
2022-10-17T17:00:08.261Z,0.00
2022-10-17T17:01:08.583Z,0.00
2022-10-17T17:02:08.221Z,0.00
2022-10-17T17:03:06.851Z,0.00
2022-10-17T17:04:08.573Z,0.00
2022-10-17T17:05:08.792Z,0.00
2022-10-17T17:06:08.190Z,0.00